createdAt,value
2017-07-11T16:29:57.632Z,93.55
2017-07-11T16:32:06.187Z,93.8
2017-07-11T16:33:06.173Z,93.55
2017-07-11T16:34:06.148Z,93.32
2017-07-11T16:35:05.832Z,93.51
2017-07-11T16:36:06.134Z,94.09
2017-07-11T16:37:06.120Z,94.28
2017-07-11T16:38:06.113Z,94.57
2017-07-11T16:39:06.093Z,94.48
2017-07-11T16:40:06.083Z,94.38
2017-07-11T16:41:05.764Z,94.28
2017-07-11T16:42:06.062Z,94.38
2017-07-11T16:43:05.726Z,93.99
2017-07-11T16:44:06.029Z,93.6
2017-07-11T16:45:06.029Z,93.02
2017-07-11T16:46:06.017Z,92.93
2017-07-11T16:47:05.996Z,92.93
2017-07-11T16:48:05.673Z,92.68
2017-07-11T16:49:05.977Z,92.58
2017-07-11T16:50:05.646Z,92
2017-07-11T16:51:05.952Z,91.82
2017-07-11T16:52:05.933Z,91.33
2017-07-11T16:53:05.935Z,91.24
2017-07-11T16:54:05.943Z,91.82
2017-07-11T16:55:05.915Z,92
2017-07-11T16:56:05.586Z,91.91
2017-07-11T16:57:05.893Z,91.62
2017-07-11T16:58:05.882Z,92.2
2017-07-11T16:59:05.860Z,92.16
2017-07-11T17:00:05.928Z,92.25
2017-07-11T17:01:05.890Z,92.35
2017-07-11T17:02:05.896Z,92.68
2017-07-11T17:03:05.493Z,92.64
2017-07-11T17:04:05.602Z,93.02
2017-07-11T17:05:05.852Z,92.58
2017-07-11T17:06:05.487Z,92.58
2017-07-11T17:07:05.758Z,92.49
2017-07-11T17:08:05.851Z,91.82
2017-07-11T17:09:05.845Z,92.83
2017-07-11T17:10:05.727Z,93.12
2017-07-11T17:11:05.718Z,92.88
2017-07-11T17:12:05.758Z,92.74
2017-07-11T17:13:05.787Z,93.46
2017-07-11T17:14:05.367Z,93.36
2017-07-11T17:15:05.356Z,92.83
2017-07-11T17:16:05.666Z,93.02
2017-07-11T17:17:05.669Z,92.83
2017-07-11T17:18:05.635Z,92.54
2017-07-11T17:19:05.628Z,93.22
2017-07-11T17:20:05.628Z,92.93
2017-07-11T17:21:05.659Z,93.02
2017-07-11T17:22:05.582Z,92.93
2017-07-11T17:23:05.572Z,92.83
2017-07-11T17:24:05.573Z,92.64
2017-07-11T17:25:05.595Z,92.54
2017-07-11T17:26:05.236Z,92.74
2017-07-11T17:27:05.537Z,93.41
2017-07-11T17:28:05.213Z,93.22
2017-07-11T17:29:05.512Z,93.22
2017-07-11T17:30:05.517Z,92.64
2017-07-11T17:31:05.495Z,92.93
2017-07-11T17:32:05.553Z,92.93
2017-07-11T17:33:05.485Z,93.02
2017-07-11T17:34:05.449Z,93.41
2017-07-11T17:35:05.456Z,93.51
2017-07-11T17:36:05.436Z,94.18
2017-07-11T17:37:05.425Z,93.75
2017-07-11T17:38:05.425Z,94.33
2017-07-11T17:39:05.401Z,94.33
2017-07-11T17:40:05.377Z,94.72
2017-07-11T17:41:05.365Z,95.2
2017-07-11T17:42:05.372Z,95.3
2017-07-11T17:43:05.364Z,94.53
2017-07-11T17:44:05.338Z,94.43
2017-07-11T17:45:05.331Z,94.33
2017-07-11T17:46:05.306Z,93.75
2017-07-11T17:47:05.317Z,93.37
2017-07-11T17:48:05.292Z,93.75
2017-07-11T17:49:05.276Z,93.37
2017-07-11T17:50:05.276Z,93.08
2017-07-11T17:51:05.244Z,94.14
2017-07-11T17:52:05.251Z,93.46
2017-07-11T17:53:05.233Z,94.53
2017-07-11T17:54:05.225Z,94.53
2017-07-11T17:55:05.215Z,94.43
2017-07-11T17:56:05.327Z,94.53
2017-07-11T17:57:05.197Z,94.53
2017-07-11T17:58:04.855Z,94.91
2017-07-11T17:59:05.162Z,95.01
2017-07-11T18:00:05.153Z,94.43
2017-07-11T18:01:05.129Z,94.43
2017-07-11T18:02:05.121Z,94.33
2017-07-11T18:03:05.116Z,95.1
2017-07-11T18:04:05.099Z,95.01
2017-07-11T18:05:05.113Z,95.2
2017-07-11T18:06:05.075Z,95.88
2017-07-11T18:07:04.758Z,95.59
2017-07-11T18:08:05.076Z,95.68
2017-07-11T18:09:04.733Z,95.83
2017-07-11T18:10:05.025Z,95.88
2017-07-11T18:11:05.029Z,95.83
2017-07-11T18:12:05.015Z,95.73
2017-07-11T18:13:05.009Z,96.41
2017-07-11T18:14:04.983Z,96.03
2017-07-11T18:15:04.993Z,95.98
2017-07-11T18:16:04.973Z,96.84
2017-07-11T18:17:04.954Z,96.36
2017-07-11T18:18:04.946Z,96.17
2017-07-11T18:19:04.608Z,96.07
2017-07-11T18:20:04.916Z,95.98
2017-07-11T18:21:04.909Z,96.46
2017-07-11T18:22:04.888Z,95.98
2017-07-11T18:23:04.874Z,96.36
2017-07-11T18:24:04.875Z,96.17
2017-07-11T18:25:04.867Z,96.56
2017-07-11T18:26:04.843Z,96.84
2017-07-11T18:27:04.841Z,97.23
2017-07-11T18:28:04.811Z,96.94
2017-07-11T18:29:04.805Z,97.19
2017-07-11T18:30:04.798Z,97.19
2017-07-11T18:31:04.779Z,98.15
2017-07-11T18:32:04.775Z,98.35
2017-07-11T18:33:04.780Z,98.83
2017-07-11T18:34:04.747Z,98.15
2017-07-11T18:35:04.734Z,98.05
2017-07-11T18:36:04.400Z,99.02
2017-07-11T18:37:04.712Z,98.54
2017-07-11T18:38:04.378Z,99.11
2017-07-11T18:39:04.367Z,98.63
2017-07-11T18:40:04.680Z,98.93
2017-07-11T18:41:04.648Z,99.11
2017-07-11T18:42:04.649Z,99.21
2017-07-11T18:43:04.648Z,99.11
2017-07-11T18:44:04.616Z,99.02
2017-07-11T18:45:04.607Z,98.73
2017-07-11T18:46:04.588Z,98.73
2017-07-11T18:47:04.577Z,99.02
2017-07-11T18:48:04.578Z,99.02
2017-07-11T18:49:04.560Z,98.63
2017-07-11T18:50:04.547Z,98.63
2017-07-11T18:51:04.527Z,98.44
2017-07-11T18:52:04.527Z,99.11
2017-07-11T18:53:04.515Z,98.78
2017-07-11T18:54:04.492Z,99.02
2017-07-11T18:55:04.477Z,99.11
2017-07-11T18:56:04.467Z,98.78
2017-07-11T18:57:04.458Z,99.94
2017-07-11T18:58:04.458Z,99.99
2017-07-11T18:59:04.421Z,99.84
2017-07-11T19:00:04.535Z,99.74
2017-07-11T19:01:04.405Z,99.89
2017-07-11T19:02:04.397Z,99.74
2017-07-11T19:03:04.388Z,99.94
2017-07-11T19:04:04.487Z,99.65
2017-07-11T19:05:04.356Z,99.84
2017-07-11T19:06:04.361Z,99.99
2017-07-11T19:07:04.336Z,99.99
2017-07-11T19:08:04.407Z,99.99
2017-07-11T19:09:04.306Z,99.99
2017-07-11T19:10:04.316Z,99.99
2017-07-11T19:11:04.303Z,99.99
2017-07-11T19:12:04.298Z,99.99
2017-07-11T19:13:04.266Z,99.99
2017-07-11T19:14:04.256Z,99.99
2017-07-11T19:15:04.247Z,99.99
2017-07-11T19:16:04.228Z,99.99
2017-07-11T19:17:04.193Z,99.99
2017-07-11T19:18:04.301Z,99.99
2017-07-11T19:19:04.225Z,99.99
2017-07-11T19:20:04.267Z,99.99
2017-07-11T19:21:04.192Z,99.99
2017-07-11T19:22:04.184Z,99.99
2017-07-11T19:23:04.126Z,99.99
2017-07-11T19:24:04.140Z,99.99
2017-07-11T19:25:04.119Z,99.99
2017-07-11T19:26:04.137Z,99.99
2017-07-11T19:27:04.085Z,99.99
2017-07-11T19:28:04.077Z,99.99
2017-07-11T19:29:04.060Z,99.99
2017-07-11T19:30:04.026Z,99.99
2017-07-11T19:31:04.069Z,99.99
2017-07-11T19:32:04.021Z,99.99
2017-07-11T19:33:04.008Z,99.99
2017-07-11T19:34:03.988Z,99.99
2017-07-11T19:35:03.977Z,99.99
2017-07-11T19:36:03.956Z,99.99
2017-07-11T19:37:03.959Z,99.99
2017-07-11T19:38:03.947Z,99.99
2017-07-11T19:39:03.937Z,99.99
2017-07-11T19:40:03.918Z,99.99
2017-07-11T19:41:03.909Z,99.99
2017-07-11T19:42:03.934Z,99.99
2017-07-11T19:43:03.889Z,99.99
2017-07-11T19:44:03.870Z,99.99
2017-07-11T19:45:03.846Z,99.99
2017-07-11T19:46:03.840Z,99.99
2017-07-11T19:47:03.816Z,99.99
2017-07-11T19:48:03.810Z,99.99
2017-07-11T19:49:03.810Z,99.99
2017-07-11T19:50:03.779Z,99.99
2017-07-11T19:51:03.767Z,99.99
2017-07-11T19:52:03.747Z,99.99
2017-07-11T19:53:03.729Z,99.99
2017-07-11T19:54:03.719Z,99.99
2017-07-11T19:55:03.718Z,99.99
2017-07-11T19:56:03.753Z,99.99
2017-07-11T19:57:03.676Z,99.99
2017-07-11T19:58:03.660Z,99.99
2017-07-11T19:59:03.648Z,99.99
2017-07-11T20:00:03.324Z,99.99
2017-07-11T20:01:03.618Z,99.99
2017-07-11T20:02:03.617Z,99.99
2017-07-11T20:03:03.610Z,99.99
2017-07-11T20:04:03.588Z,99.99
2017-07-11T20:05:03.579Z,99.99
2017-07-11T20:06:03.560Z,99.99
2017-07-11T20:07:03.548Z,99.99
2017-07-11T20:08:03.532Z,99.99
2017-07-11T20:09:03.520Z,99.99
2017-07-11T20:10:03.508Z,99.99
2017-07-11T20:11:03.506Z,99.99
2017-07-11T20:12:03.156Z,99.99
2017-07-11T20:13:03.468Z,99.99
2017-07-11T20:14:03.137Z,99.99
2017-07-11T20:15:03.437Z,99.99
2017-07-11T20:16:03.436Z,99.99
2017-07-11T20:17:03.408Z,99.99
2017-07-11T20:18:03.405Z,99.99
2017-07-11T20:19:03.382Z,99.99
2017-07-11T20:20:03.379Z,99.99
2017-07-11T20:21:03.358Z,99.99
2017-07-11T20:22:03.359Z,99.99
2017-07-11T20:23:03.331Z,99.99
2017-07-11T20:24:03.364Z,99.99
2017-07-11T20:25:02.997Z,99.99
2017-07-11T20:26:03.290Z,99.99
2017-07-11T20:27:03.290Z,99.99
2017-07-11T20:28:03.265Z,99.99
2017-07-11T20:29:03.246Z,99.99
2017-07-11T20:30:03.248Z,99.99
2017-07-11T20:31:03.227Z,99.99
2017-07-11T20:32:02.893Z,99.99
2017-07-11T20:33:03.188Z,99.99
2017-07-11T20:34:03.190Z,99.99
2017-07-11T20:35:03.188Z,99.99
2017-07-11T20:36:03.167Z,99.99
2017-07-11T20:37:02.838Z,99.99
2017-07-11T20:38:03.131Z,99.99
2017-07-11T20:39:03.106Z,99.99
2017-07-11T20:40:03.099Z,99.99
2017-07-11T20:41:02.765Z,99.99
2017-07-11T20:42:03.071Z,99.99
2017-07-11T20:43:03.045Z,99.99
2017-07-11T20:44:03.029Z,99.99
2017-07-11T20:45:03.029Z,99.99
2017-07-11T20:46:03.000Z,99.99
2017-07-11T20:47:02.688Z,99.99
2017-07-11T20:48:02.669Z,99.99
2017-07-11T20:49:02.987Z,99.99
2017-07-11T20:50:02.946Z,99.99
2017-07-11T20:51:02.938Z,99.99
2017-07-11T20:52:02.925Z,99.99
2017-07-11T20:53:02.908Z,99.99
2017-07-11T20:54:02.892Z,99.99
2017-07-11T20:55:02.887Z,99.99
2017-07-11T20:56:02.889Z,99.99
2017-07-11T20:57:02.862Z,99.99
2017-07-11T20:58:02.834Z,99.99
2017-07-11T20:59:02.839Z,99.99
2017-07-11T21:00:02.821Z,99.99
2017-07-11T21:01:02.790Z,99.99
2017-07-11T21:02:02.471Z,99.99
2017-07-11T21:03:02.763Z,99.99
2017-07-11T21:04:02.444Z,99.99
2017-07-11T21:05:02.743Z,99.99
2017-07-11T21:06:02.719Z,99.99
2017-07-11T21:07:02.405Z,99.99
2017-07-11T21:08:02.687Z,99.99
2017-07-11T21:09:02.689Z,99.99
2017-07-11T21:10:02.671Z,99.99
2017-07-11T21:11:02.670Z,99.99
2017-07-11T21:12:02.641Z,99.99
2017-07-11T21:13:02.324Z,99.99
2017-07-11T21:14:02.608Z,99.99
2017-07-11T21:15:02.594Z,99.99
2017-07-11T21:16:02.590Z,99.99
2017-07-11T21:17:02.257Z,99.99
2017-07-11T21:18:02.585Z,99.99
2017-07-11T21:19:02.550Z,99.99
2017-07-11T21:20:02.543Z,99.99
2017-07-11T21:21:02.197Z,99.99
2017-07-11T21:22:02.494Z,99.99
2017-07-11T21:23:02.492Z,99.99
2017-07-11T21:24:02.179Z,99.99
2017-07-11T21:25:02.142Z,99.99
2017-07-11T21:26:02.453Z,99.99
2017-07-11T21:27:02.444Z,99.99
2017-07-11T21:28:02.419Z,99.99
2017-07-11T21:29:02.423Z,99.99
2017-07-11T21:30:02.069Z,99.99
2017-07-11T21:31:02.377Z,99.99
2017-07-11T21:32:02.363Z,99.99
2017-07-11T21:33:02.350Z,99.99
2017-07-11T21:34:02.351Z,99.99
2017-07-11T21:35:02.325Z,99.99
2017-07-11T21:36:02.319Z,99.99
2017-07-11T21:37:02.300Z,99.99
2017-07-11T21:38:01.966Z,99.99
2017-07-11T21:39:02.248Z,99.99
2017-07-11T21:40:02.250Z,99.99
2017-07-11T21:41:01.918Z,99.99
2017-07-11T21:42:02.228Z,99.99
2017-07-11T21:43:02.198Z,99.99
2017-07-11T21:44:02.192Z,99.99
2017-07-11T21:45:01.869Z,99.99
2017-07-11T21:46:01.852Z,99.99
2017-07-11T21:47:02.143Z,99.99
2017-07-11T21:48:02.139Z,99.99
2017-07-11T21:49:01.811Z,99.99
2017-07-11T21:50:02.138Z,99.99
2017-07-11T21:51:02.099Z,99.99
2017-07-11T21:52:02.081Z,99.99
2017-07-11T21:53:02.059Z,99.99
2017-07-11T21:54:02.050Z,99.99
2017-07-11T21:55:02.031Z,99.99
2017-07-11T21:56:02.021Z,99.99
2017-07-11T21:57:02.010Z,99.99
2017-07-11T21:58:01.989Z,99.99
2017-07-11T21:59:01.659Z,99.99
2017-07-11T22:00:01.982Z,99.99
2017-07-11T22:01:01.957Z,99.99
2017-07-11T22:02:02.030Z,99.99
2017-07-11T22:03:01.922Z,99.99
2017-07-11T22:04:01.918Z,99.99
2017-07-11T22:05:01.569Z,99.99
2017-07-11T22:06:01.881Z,99.99
2017-07-11T22:07:01.540Z,99.99
2017-07-11T22:08:01.869Z,99.99
2017-07-11T22:09:01.816Z,99.99
2017-07-11T22:10:01.803Z,99.99
2017-07-11T22:11:01.808Z,99.99
2017-07-11T22:12:01.789Z,99.99
2017-07-11T22:13:01.775Z,99.99
2017-07-11T22:14:01.444Z,99.99
2017-07-11T22:15:01.769Z,99.99
2017-07-11T22:16:01.720Z,99.99
2017-07-11T22:17:01.760Z,99.99
2017-07-11T22:18:01.691Z,99.99
2017-07-11T22:19:01.363Z,99.99
2017-07-11T22:20:01.350Z,99.99
2017-07-11T22:21:01.330Z,99.99
2017-07-11T22:22:01.318Z,99.99
2017-07-11T22:23:01.618Z,99.99
2017-07-11T22:24:01.605Z,99.99
2017-07-11T22:25:01.637Z,99.99
2017-07-11T22:26:01.263Z,99.99
2017-07-11T22:27:01.671Z,99.99
2017-07-11T22:28:01.232Z,99.99
2017-07-11T22:29:01.548Z,99.99
2017-07-11T22:30:01.520Z,99.99
2017-07-11T22:31:01.509Z,99.99
2017-07-11T22:32:01.482Z,99.99
2017-07-11T22:33:01.480Z,99.99
2017-07-11T22:34:01.137Z,99.99
2017-07-11T22:35:01.129Z,99.99
2017-07-11T22:36:01.417Z,99.99
2017-07-11T22:37:01.415Z,99.99
2017-07-11T22:38:01.409Z,99.99
2017-07-11T22:39:01.380Z,99.99
2017-07-11T22:40:01.376Z,99.99
2017-07-11T22:41:01.359Z,99.99
2017-07-11T22:42:01.347Z,99.99
2017-07-11T22:43:01.012Z,99.99
2017-07-11T22:44:01.310Z,99.99
2017-07-11T22:45:00.980Z,99.99
2017-07-11T22:46:00.970Z,99.99
2017-07-11T22:47:01.258Z,99.99
2017-07-11T22:48:01.264Z,99.99
2017-07-11T22:49:01.242Z,99.99
2017-07-11T22:50:01.220Z,99.99
2017-07-11T22:51:01.210Z,99.99
2017-07-11T22:52:01.198Z,99.99
2017-07-11T22:53:01.170Z,99.99
2017-07-11T22:54:01.167Z,99.99
2017-07-11T22:55:01.161Z,99.99
2017-07-11T22:56:01.140Z,99.99
2017-07-11T22:57:00.800Z,99.99
2017-07-11T22:58:01.103Z,99.99
2017-07-11T22:59:01.079Z,99.99
2017-07-11T23:00:01.074Z,99.99
2017-07-11T23:01:00.744Z,99.99
2017-07-11T23:02:01.046Z,99.99
2017-07-11T23:03:01.053Z,99.99
2017-07-11T23:04:00.703Z,99.99
2017-07-11T23:05:01.011Z,99.99
2017-07-11T23:06:00.671Z,99.99
2017-07-11T23:07:00.970Z,99.99
2017-07-11T23:08:00.947Z,99.99
2017-07-11T23:09:00.631Z,99.99
2017-07-11T23:10:00.606Z,99.99
2017-07-11T23:11:00.912Z,99.99
2017-07-11T23:12:00.903Z,99.99
2017-07-11T23:13:00.569Z,99.99
2017-07-11T23:14:00.864Z,99.99
2017-07-11T23:15:00.532Z,99.99
2017-07-11T23:16:00.842Z,99.99
2017-07-11T23:17:00.818Z,99.99
2017-07-11T23:18:00.486Z,99.99
2017-07-11T23:19:00.799Z,99.99
2017-07-11T23:20:00.461Z,99.99
2017-07-11T23:21:00.760Z,99.99
2017-07-11T23:22:00.754Z,99.99
2017-07-11T23:23:00.722Z,99.99
2017-07-11T23:24:00.732Z,99.99
2017-07-11T23:25:00.436Z,99.99
2017-07-11T23:26:00.377Z,99.99
2017-07-11T23:27:00.669Z,99.99
2017-07-11T23:28:00.652Z,99.99
2017-07-11T23:29:00.330Z,99.99
2017-07-11T23:30:00.309Z,99.99
2017-07-11T23:31:00.298Z,99.99
2017-07-11T23:32:00.608Z,99.99
2017-07-11T23:33:00.579Z,99.99
2017-07-11T23:34:00.569Z,99.99
2017-07-11T23:35:00.555Z,99.99
2017-07-11T23:36:00.228Z,99.99
2017-07-11T23:37:00.531Z,99.99
2017-07-11T23:38:00.515Z,99.99
2017-07-11T23:39:00.604Z,99.99
2017-07-11T23:40:00.167Z,99.99
2017-07-11T23:41:00.568Z,99.99
2017-07-11T23:42:00.136Z,99.99
2017-07-11T23:43:00.560Z,99.99
2017-07-11T23:44:00.110Z,99.99
2017-07-11T23:45:00.405Z,99.99
2017-07-11T23:46:00.397Z,99.99
2017-07-11T23:47:00.087Z,99.99
2017-07-11T23:48:00.383Z,99.99
2017-07-11T23:49:00.419Z,99.99
2017-07-11T23:50:00.015Z,99.99
2017-07-11T23:51:00.016Z,99.99
2017-07-11T23:52:00.303Z,99.99
2017-07-11T23:53:00.291Z,99.99
2017-07-11T23:54:00.285Z,99.99
2017-07-11T23:55:00.267Z,99.99
2017-07-11T23:56:00.302Z,99.99
2017-07-11T23:57:00.228Z,99.99
2017-07-11T23:58:00.227Z,99.99
2017-07-11T23:58:59.890Z,99.99
